sensor_id;sensor_type;location;lat;lon;timestamp;P1;durP1;ratioP1;P2;durP2;ratioP2
12177;SDS011;6152;48.728;9.256;2023-05-24T00:01:56;3.05;;;2.70;;
12177;SDS011;6152;48.728;9.256;2023-05-24T00:04:22;4.20;;;2.80;;
12177;SDS011;6152;48.728;9.256;2023-05-24T00:06:50;3.05;;;2.47;;
12177;SDS011;6152;48.728;9.256;2023-05-24T00:09:18;3.22;;;2.60;;
12177;SDS011;6152;48.728;9.256;2023-05-24T00:11:44;5.28;;;2.92;;
12177;SDS011;6152;48.728;9.256;2023-05-24T00:14:12;3.05;;;2.63;;
12177;SDS011;6152;48.728;9.256;2023-05-24T00:16:38;4.82;;;2.65;;
12177;SDS011;6152;48.728;9.256;2023-05-24T00:19:04;2.88;;;2.40;;
12177;SDS011;6152;48.728;9.256;2023-05-24T00:21:30;3.40;;;2.17;;
12177;SDS011;6152;48.728;9.256;2023-05-24T00:23:59;6.28;;;2.72;;
12177;SDS011;6152;48.728;9.256;2023-05-24T00:26:25;3.10;;;2.58;;
12177;SDS011;6152;48.728;9.256;2023-05-24T00:28:51;3.85;;;2.50;;
12177;SDS011;6152;48.728;9.256;2023-05-24T00:31:17;4.18;;;2.45;;
12177;SDS011;6152;48.728;9.256;2023-05-24T00:33:44;4.05;;;2.50;;
12177;SDS011;6152;48.728;9.256;2023-05-24T00:36:10;4.40;;;2.63;;
12177;SDS011;6152;48.728;9.256;2023-05-24T00:38:36;3.83;;;2.25;;
12177;SDS011;6152;48.728;9.256;2023-05-24T00:41:02;6.43;;;2.47;;
12177;SDS011;6152;48.728;9.256;2023-05-24T00:43:28;4.60;;;2.03;;
12177;SDS011;6152;48.728;9.256;2023-05-24T00:46:04;3.08;;;2.10;;
12177;SDS011;6152;48.728;9.256;2023-05-24T00:48:47;3.60;;;2.47;;
12177;SDS011;6152;48.728;9.256;2023-05-24T00:51:14;4.60;;;2.22;;
12177;SDS011;6152;48.728;9.256;2023-05-24T00:53:41;7.70;;;2.60;;
12177;SDS011;6152;48.728;9.256;2023-05-24T00:56:12;3.92;;;2.35;;
12177;SDS011;6152;48.728;9.256;2023-05-24T00:58:39;4.30;;;2.42;;
12177;SDS011;6152;48.728;9.256;2023-05-24T01:01:05;5.70;;;2.38;;
12177;SDS011;6152;48.728;9.256;2023-05-24T01:03:32;2.97;;;1.73;;
12177;SDS011;6152;48.728;9.256;2023-05-24T01:06:02;3.92;;;2.10;;
12177;SDS011;6152;48.728;9.256;2023-05-24T01:13:47;4.10;;;2.45;;
12177;SDS011;6152;48.728;9.256;2023-05-24T01:16:23;3.22;;;2.33;;
12177;SDS011;6152;48.728;9.256;2023-05-24T01:18:56;4.60;;;2.30;;
12177;SDS011;6152;48.728;9.256;2023-05-24T01:25:11;4.15;;;2.42;;
12177;SDS011;6152;48.728;9.256;2023-05-24T01:27:20;4.63;;;2.20;;
12177;SDS011;6152;48.728;9.256;2023-05-24T01:29:48;4.78;;;2.33;;
12177;SDS011;6152;48.728;9.256;2023-05-24T01:32:20;3.80;;;2.35;;
12177;SDS011;6152;48.728;9.256;2023-05-24T01:34:46;3.95;;;2.50;;
12177;SDS011;6152;48.728;9.256;2023-05-24T01:37:12;4.38;;;2.30;;
12177;SDS011;6152;48.728;9.256;2023-05-24T01:39:39;4.85;;;2.65;;
12177;SDS011;6152;48.728;9.256;2023-05-24T01:42:07;4.25;;;2.63;;
12177;SDS011;6152;48.728;9.256;2023-05-24T01:50:24;5.78;;;2.70;;
12177;SDS011;6152;48.728;9.256;2023-05-24T01:53:03;4.80;;;2.33;;
12177;SDS011;6152;48.728;9.256;2023-05-24T01:55:33;5.43;;;2.78;;
12177;SDS011;6152;48.728;9.256;2023-05-24T01:58:02;4.60;;;2.88;;
12177;SDS011;6152;48.728;9.256;2023-05-24T02:00:30;5.45;;;2.80;;
12177;SDS011;6152;48.728;9.256;2023-05-24T02:02:58;4.45;;;2.67;;
12177;SDS011;6152;48.728;9.256;2023-05-24T02:05:28;5.65;;;2.20;;
12177;SDS011;6152;48.728;9.256;2023-05-24T02:07:57;5.05;;;2.50;;
12177;SDS011;6152;48.728;9.256;2023-05-24T02:10:23;8.48;;;2.80;;
12177;SDS011;6152;48.728;9.256;2023-05-24T02:12:49;4.82;;;2.63;;
12177;SDS011;6152;48.728;9.256;2023-05-24T02:15:15;6.70;;;2.78;;
12177;SDS011;6152;48.728;9.256;2023-05-24T02:17:41;7.85;;;2.65;;
12177;SDS011;6152;48.728;9.256;2023-05-24T02:20:08;6.55;;;3.03;;
12177;SDS011;6152;48.728;9.256;2023-05-24T02:22:34;6.15;;;2.90;;
12177;SDS011;6152;48.728;9.256;2023-05-24T02:25:00;5.75;;;2.47;;
12177;SDS011;6152;48.728;9.256;2023-05-24T02:27:27;4.70;;;2.78;;
12177;SDS011;6152;48.728;9.256;2023-05-24T02:29:53;6.45;;;2.90;;
12177;SDS011;6152;48.728;9.256;2023-05-24T02:32:19;5.47;;;2.67;;
12177;SDS011;6152;48.728;9.256;2023-05-24T02:34:46;7.80;;;3.05;;
12177;SDS011;6152;48.728;9.256;2023-05-24T02:37:12;5.97;;;2.88;;
12177;SDS011;6152;48.728;9.256;2023-05-24T02:39:38;6.82;;;2.33;;
12177;SDS011;6152;48.728;9.256;2023-05-24T02:42:06;3.65;;;2.78;;
12177;SDS011;6152;48.728;9.256;2023-05-24T02:44:33;6.25;;;3.53;;
12177;SDS011;6152;48.728;9.256;2023-05-24T02:46:59;5.55;;;2.85;;
12177;SDS011;6152;48.728;9.256;2023-05-24T02:49:25;5.45;;;3.00;;
12177;SDS011;6152;48.728;9.256;2023-05-24T02:51:51;5.88;;;2.83;;
12177;SDS011;6152;48.728;9.256;2023-05-24T02:54:17;6.72;;;3.40;;
12177;SDS011;6152;48.728;9.256;2023-05-24T02:56:43;6.00;;;2.85;;
12177;SDS011;6152;48.728;9.256;2023-05-24T02:59:10;7.47;;;3.13;;
12177;SDS011;6152;48.728;9.256;2023-05-24T03:01:36;7.10;;;2.80;;
12177;SDS011;6152;48.728;9.256;2023-05-24T03:04:02;5.80;;;2.63;;
12177;SDS011;6152;48.728;9.256;2023-05-24T03:06:28;4.80;;;3.00;;
12177;SDS011;6152;48.728;9.256;2023-05-24T03:08:55;7.15;;;3.30;;
12177;SDS011;6152;48.728;9.256;2023-05-24T03:11:22;4.05;;;2.80;;
12177;SDS011;6152;48.728;9.256;2023-05-24T03:13:48;7.07;;;3.50;;
12177;SDS011;6152;48.728;9.256;2023-05-24T03:16:14;4.82;;;2.88;;
12177;SDS011;6152;48.728;9.256;2023-05-24T03:18:41;5.75;;;3.53;;
12177;SDS011;6152;48.728;9.256;2023-05-24T03:21:07;6.38;;;3.13;;
12177;SDS011;6152;48.728;9.256;2023-05-24T03:23:33;6.43;;;3.03;;
12177;SDS011;6152;48.728;9.256;2023-05-24T03:25:59;5.85;;;3.08;;
12177;SDS011;6152;48.728;9.256;2023-05-24T03:28:25;6.57;;;3.88;;
12177;SDS011;6152;48.728;9.256;2023-05-24T03:30:51;7.22;;;3.50;;
12177;SDS011;6152;48.728;9.256;2023-05-24T03:33:17;7.85;;;3.38;;
12177;SDS011;6152;48.728;9.256;2023-05-24T03:35:44;8.15;;;3.85;;
12177;SDS011;6152;48.728;9.256;2023-05-24T03:38:10;5.20;;;3.15;;
12177;SDS011;6152;48.728;9.256;2023-05-24T03:40:36;7.07;;;3.08;;
12177;SDS011;6152;48.728;9.256;2023-05-24T03:43:02;5.53;;;3.42;;
12177;SDS011;6152;48.728;9.256;2023-05-24T03:45:28;4.85;;;2.92;;
12177;SDS011;6152;48.728;9.256;2023-05-24T03:47:54;5.45;;;3.05;;
12177;SDS011;6152;48.728;9.256;2023-05-24T03:50:21;5.50;;;3.00;;
12177;SDS011;6152;48.728;9.256;2023-05-24T03:52:47;5.80;;;3.22;;
12177;SDS011;6152;48.728;9.256;2023-05-24T03:55:13;5.45;;;3.13;;
12177;SDS011;6152;48.728;9.256;2023-05-24T03:57:39;6.78;;;3.47;;
12177;SDS011;6152;48.728;9.256;2023-05-24T04:00:07;5.45;;;3.28;;
12177;SDS011;6152;48.728;9.256;2023-05-24T04:02:34;7.53;;;3.13;;
12177;SDS011;6152;48.728;9.256;2023-05-24T04:05:04;9.40;;;3.97;;
12177;SDS011;6152;48.728;9.256;2023-05-24T04:07:34;7.18;;;3.35;;
12177;SDS011;6152;48.728;9.256;2023-05-24T04:10:02;6.88;;;3.10;;
12177;SDS011;6152;48.728;9.256;2023-05-24T04:12:29;7.97;;;3.38;;
12177;SDS011;6152;48.728;9.256;2023-05-24T04:14:56;7.00;;;3.28;;
12177;SDS011;6152;48.728;9.256;2023-05-24T04:17:22;4.82;;;3.00;;
12177;SDS011;6152;48.728;9.256;2023-05-24T04:19:49;8.05;;;3.63;;
12177;SDS011;6152;48.728;9.256;2023-05-24T04:22:16;11.10;;;3.45;;
12177;SDS011;6152;48.728;9.256;2023-05-24T04:24:43;4.50;;;3.35;;
12177;SDS011;6152;48.728;9.256;2023-05-24T04:27:09;6.43;;;3.22;;
12177;SDS011;6152;48.728;9.256;2023-05-24T04:29:36;8.45;;;3.50;;
12177;SDS011;6152;48.728;9.256;2023-05-24T04:32:04;5.75;;;3.45;;
12177;SDS011;6152;48.728;9.256;2023-05-24T04:34:31;5.40;;;3.22;;
12177;SDS011;6152;48.728;9.256;2023-05-24T04:36:59;4.30;;;3.05;;
12177;SDS011;6152;48.728;9.256;2023-05-24T04:39:26;8.00;;;3.70;;
12177;SDS011;6152;48.728;9.256;2023-05-24T04:41:54;5.53;;;3.80;;
12177;SDS011;6152;48.728;9.256;2023-05-24T04:44:22;9.20;;;3.90;;
12177;SDS011;6152;48.728;9.256;2023-05-24T04:46:48;8.48;;;3.58;;
12177;SDS011;6152;48.728;9.256;2023-05-24T04:49:14;7.03;;;3.20;;
12177;SDS011;6152;48.728;9.256;2023-05-24T04:51:41;6.43;;;3.58;;
12177;SDS011;6152;48.728;9.256;2023-05-24T04:54:08;6.30;;;3.25;;
12177;SDS011;6152;48.728;9.256;2023-05-24T04:56:34;7.13;;;3.45;;
12177;SDS011;6152;48.728;9.256;2023-05-24T04:59:02;9.57;;;4.03;;
12177;SDS011;6152;48.728;9.256;2023-05-24T05:01:29;8.65;;;4.20;;
12177;SDS011;6152;48.728;9.256;2023-05-24T05:03:56;15.38;;;3.80;;
12177;SDS011;6152;48.728;9.256;2023-05-24T05:06:22;7.75;;;4.10;;
12177;SDS011;6152;48.728;9.256;2023-05-24T05:08:49;6.72;;;3.13;;
12177;SDS011;6152;48.728;9.256;2023-05-24T05:11:15;6.68;;;3.50;;
12177;SDS011;6152;48.728;9.256;2023-05-24T05:13:43;7.40;;;4.00;;
12177;SDS011;6152;48.728;9.256;2023-05-24T05:16:09;11.60;;;4.07;;
12177;SDS011;6152;48.728;9.256;2023-05-24T05:18:35;7.47;;;3.40;;
12177;SDS011;6152;48.728;9.256;2023-05-24T05:21:02;9.48;;;3.70;;
12177;SDS011;6152;48.728;9.256;2023-05-24T05:23:28;7.15;;;4.15;;
12177;SDS011;6152;48.728;9.256;2023-05-24T05:25:54;7.50;;;3.78;;
12177;SDS011;6152;48.728;9.256;2023-05-24T05:28:21;10.52;;;4.03;;
12177;SDS011;6152;48.728;9.256;2023-05-24T05:30:47;8.73;;;3.80;;
12177;SDS011;6152;48.728;9.256;2023-05-24T05:33:13;4.65;;;3.78;;
12177;SDS011;6152;48.728;9.256;2023-05-24T05:35:39;9.75;;;3.92;;
12177;SDS011;6152;48.728;9.256;2023-05-24T05:38:05;5.22;;;3.80;;
12177;SDS011;6152;48.728;9.256;2023-05-24T05:40:31;8.45;;;3.92;;
12177;SDS011;6152;48.728;9.256;2023-05-24T05:42:58;6.03;;;3.45;;
12177;SDS011;6152;48.728;9.256;2023-05-24T05:45:24;6.35;;;3.45;;
12177;SDS011;6152;48.728;9.256;2023-05-24T05:47:50;7.72;;;3.58;;
12177;SDS011;6152;48.728;9.256;2023-05-24T05:50:16;8.85;;;4.00;;
12177;SDS011;6152;48.728;9.256;2023-05-24T05:52:42;8.10;;;3.63;;
12177;SDS011;6152;48.728;9.256;2023-05-24T05:55:08;6.38;;;3.63;;
12177;SDS011;6152;48.728;9.256;2023-05-24T05:57:36;7.95;;;3.15;;
12177;SDS011;6152;48.728;9.256;2023-05-24T06:00:02;6.60;;;3.47;;
12177;SDS011;6152;48.728;9.256;2023-05-24T06:02:28;5.03;;;3.28;;
12177;SDS011;6152;48.728;9.256;2023-05-24T06:04:55;5.45;;;3.50;;
12177;SDS011;6152;48.728;9.256;2023-05-24T06:07:21;7.07;;;3.38;;
12177;SDS011;6152;48.728;9.256;2023-05-24T06:09:47;7.15;;;3.65;;
12177;SDS011;6152;48.728;9.256;2023-05-24T06:12:13;8.77;;;3.92;;
12177;SDS011;6152;48.728;9.256;2023-05-24T06:14:39;5.53;;;3.35;;
12177;SDS011;6152;48.728;9.256;2023-05-24T06:17:05;5.78;;;3.00;;
12177;SDS011;6152;48.728;9.256;2023-05-24T06:19:31;6.28;;;4.13;;
12177;SDS011;6152;48.728;9.256;2023-05-24T06:21:58;7.63;;;3.30;;
12177;SDS011;6152;48.728;9.256;2023-05-24T06:24:24;7.13;;;3.80;;
12177;SDS011;6152;48.728;9.256;2023-05-24T06:26:52;7.00;;;2.92;;
12177;SDS011;6152;48.728;9.256;2023-05-24T06:29:18;6.55;;;3.13;;
12177;SDS011;6152;48.728;9.256;2023-05-24T06:31:45;10.73;;;3.30;;
12177;SDS011;6152;48.728;9.256;2023-05-24T06:34:15;7.60;;;3.65;;
12177;SDS011;6152;48.728;9.256;2023-05-24T06:36:44;6.60;;;3.30;;
12177;SDS011;6152;48.728;9.256;2023-05-24T06:39:12;9.00;;;3.53;;
12177;SDS011;6152;48.728;9.256;2023-05-24T06:41:40;7.32;;;3.15;;
12177;SDS011;6152;48.728;9.256;2023-05-24T06:44:08;10.02;;;3.28;;
12177;SDS011;6152;48.728;9.256;2023-05-24T06:46:34;12.80;;;3.25;;
12177;SDS011;6152;48.728;9.256;2023-05-24T06:49:01;9.73;;;4.07;;
12177;SDS011;6152;48.728;9.256;2023-05-24T06:51:27;7.95;;;3.28;;
12177;SDS011;6152;48.728;9.256;2023-05-24T06:53:54;7.07;;;3.55;;
12177;SDS011;6152;48.728;9.256;2023-05-24T06:56:20;5.65;;;3.38;;
12177;SDS011;6152;48.728;9.256;2023-05-24T06:58:47;10.88;;;3.50;;
12177;SDS011;6152;48.728;9.256;2023-05-24T07:01:13;8.20;;;4.00;;
12177;SDS011;6152;48.728;9.256;2023-05-24T07:03:40;5.68;;;3.35;;
12177;SDS011;6152;48.728;9.256;2023-05-24T07:06:06;3.97;;;2.97;;
12177;SDS011;6152;48.728;9.256;2023-05-24T07:08:34;6.25;;;3.25;;
12177;SDS011;6152;48.728;9.256;2023-05-24T07:11:00;6.88;;;3.13;;
12177;SDS011;6152;48.728;9.256;2023-05-24T07:13:27;7.93;;;3.75;;
12177;SDS011;6152;48.728;9.256;2023-05-24T07:15:53;8.55;;;3.30;;
12177;SDS011;6152;48.728;9.256;2023-05-24T07:18:19;8.35;;;3.22;;
12177;SDS011;6152;48.728;9.256;2023-05-24T07:20:45;6.65;;;3.25;;
12177;SDS011;6152;48.728;9.256;2023-05-24T07:23:11;5.97;;;3.30;;
12177;SDS011;6152;48.728;9.256;2023-05-24T07:25:37;8.85;;;3.72;;
12177;SDS011;6152;48.728;9.256;2023-05-24T07:28:03;9.35;;;3.65;;
12177;SDS011;6152;48.728;9.256;2023-05-24T07:30:29;6.15;;;3.50;;
12177;SDS011;6152;48.728;9.256;2023-05-24T07:32:56;9.90;;;3.95;;
12177;SDS011;6152;48.728;9.256;2023-05-24T07:35:22;6.07;;;3.55;;
12177;SDS011;6152;48.728;9.256;2023-05-24T07:37:48;10.35;;;3.30;;
12177;SDS011;6152;48.728;9.256;2023-05-24T07:40:14;10.27;;;3.80;;
12177;SDS011;6152;48.728;9.256;2023-05-24T07:42:41;6.78;;;2.92;;
12177;SDS011;6152;48.728;9.256;2023-05-24T07:45:07;6.43;;;3.45;;
12177;SDS011;6152;48.728;9.256;2023-05-24T07:47:34;8.23;;;3.35;;
12177;SDS011;6152;48.728;9.256;2023-05-24T07:50:01;6.20;;;2.85;;
12177;SDS011;6152;48.728;9.256;2023-05-24T07:52:27;7.10;;;3.10;;
12177;SDS011;6152;48.728;9.256;2023-05-24T07:54:54;7.35;;;2.90;;
12177;SDS011;6152;48.728;9.256;2023-05-24T07:57:20;6.97;;;3.17;;
12177;SDS011;6152;48.728;9.256;2023-05-24T07:59:46;8.25;;;3.28;;
12177;SDS011;6152;48.728;9.256;2023-05-24T08:02:13;10.55;;;2.95;;
12177;SDS011;6152;48.728;9.256;2023-05-24T08:04:40;6.05;;;3.22;;
12177;SDS011;6152;48.728;9.256;2023-05-24T08:07:07;4.35;;;2.53;;
12177;SDS011;6152;48.728;9.256;2023-05-24T08:09:33;5.95;;;3.15;;
12177;SDS011;6152;48.728;9.256;2023-05-24T08:12:02;5.53;;;4.30;;
12177;SDS011;6152;48.728;9.256;2023-05-24T08:14:29;6.55;;;3.33;;
12177;SDS011;6152;48.728;9.256;2023-05-24T08:16:56;8.02;;;3.78;;
12177;SDS011;6152;48.728;9.256;2023-05-24T08:19:24;6.22;;;3.40;;
12177;SDS011;6152;48.728;9.256;2023-05-24T08:21:51;9.27;;;3.88;;
12177;SDS011;6152;48.728;9.256;2023-05-24T08:24:28;9.57;;;3.75;;
12177;SDS011;6152;48.728;9.256;2023-05-24T08:26:55;8.48;;;3.25;;
12177;SDS011;6152;48.728;9.256;2023-05-24T08:29:21;8.05;;;3.42;;
12177;SDS011;6152;48.728;9.256;2023-05-24T08:31:48;7.63;;;3.05;;
12177;SDS011;6152;48.728;9.256;2023-05-24T08:34:14;9.45;;;3.70;;
12177;SDS011;6152;48.728;9.256;2023-05-24T08:36:40;10.85;;;3.58;;
12177;SDS011;6152;48.728;9.256;2023-05-24T08:39:07;7.20;;;3.58;;
12177;SDS011;6152;48.728;9.256;2023-05-24T08:41:34;5.80;;;3.50;;
12177;SDS011;6152;48.728;9.256;2023-05-24T08:44:05;9.73;;;3.92;;
12177;SDS011;6152;48.728;9.256;2023-05-24T08:46:35;8.35;;;3.90;;
12177;SDS011;6152;48.728;9.256;2023-05-24T08:49:02;6.78;;;2.88;;
12177;SDS011;6152;48.728;9.256;2023-05-24T08:51:29;8.02;;;3.63;;
12177;SDS011;6152;48.728;9.256;2023-05-24T08:53:58;5.10;;;2.88;;
12177;SDS011;6152;48.728;9.256;2023-05-24T08:56:25;8.20;;;3.00;;
12177;SDS011;6152;48.728;9.256;2023-05-24T08:58:53;5.45;;;3.17;;
12177;SDS011;6152;48.728;9.256;2023-05-24T09:01:19;8.52;;;3.30;;
12177;SDS011;6152;48.728;9.256;2023-05-24T09:03:47;8.35;;;3.78;;
12177;SDS011;6152;48.728;9.256;2023-05-24T09:06:16;5.25;;;3.15;;
12177;SDS011;6152;48.728;9.256;2023-05-24T09:08:43;4.10;;;2.90;;
12177;SDS011;6152;48.728;9.256;2023-05-24T09:11:09;8.60;;;3.28;;
12177;SDS011;6152;48.728;9.256;2023-05-24T09:13:36;7.57;;;2.78;;
12177;SDS011;6152;48.728;9.256;2023-05-24T09:16:02;5.35;;;3.03;;
12177;SDS011;6152;48.728;9.256;2023-05-24T09:18:29;7.65;;;2.95;;
12177;SDS011;6152;48.728;9.256;2023-05-24T09:20:55;8.00;;;2.95;;
12177;SDS011;6152;48.728;9.256;2023-05-24T09:23:22;6.65;;;3.15;;
12177;SDS011;6152;48.728;9.256;2023-05-24T09:25:50;7.47;;;3.20;;
12177;SDS011;6152;48.728;9.256;2023-05-24T09:28:17;8.80;;;3.15;;
12177;SDS011;6152;48.728;9.256;2023-05-24T09:30:45;5.75;;;3.25;;
12177;SDS011;6152;48.728;9.256;2023-05-24T09:33:21;12.25;;;3.53;;
12177;SDS011;6152;48.728;9.256;2023-05-24T09:35:48;9.00;;;3.20;;
12177;SDS011;6152;48.728;9.256;2023-05-24T09:38:17;6.43;;;3.22;;
12177;SDS011;6152;48.728;9.256;2023-05-24T09:40:44;5.38;;;3.05;;
12177;SDS011;6152;48.728;9.256;2023-05-24T09:43:10;5.15;;;3.17;;
12177;SDS011;6152;48.728;9.256;2023-05-24T09:45:39;9.45;;;3.03;;
12177;SDS011;6152;48.728;9.256;2023-05-24T09:48:10;6.88;;;3.20;;
12177;SDS011;6152;48.728;9.256;2023-05-24T09:50:38;5.72;;;3.00;;
12177;SDS011;6152;48.728;9.256;2023-05-24T09:53:04;7.30;;;3.10;;
12177;SDS011;6152;48.728;9.256;2023-05-24T09:55:30;7.32;;;3.58;;
12177;SDS011;6152;48.728;9.256;2023-05-24T09:58:05;4.80;;;2.80;;
12177;SDS011;6152;48.728;9.256;2023-05-24T10:00:36;7.20;;;3.95;;
12177;SDS011;6152;48.728;9.256;2023-05-24T10:03:05;9.23;;;3.33;;
12177;SDS011;6152;48.728;9.256;2023-05-24T10:05:33;6.20;;;3.20;;
12177;SDS011;6152;48.728;9.256;2023-05-24T10:08:00;8.07;;;3.58;;
12177;SDS011;6152;48.728;9.256;2023-05-24T10:10:29;9.38;;;3.70;;
12177;SDS011;6152;48.728;9.256;2023-05-24T10:12:57;7.20;;;3.65;;
12177;SDS011;6152;48.728;9.256;2023-05-24T10:15:25;5.78;;;3.63;;
12177;SDS011;6152;48.728;9.256;2023-05-24T10:17:55;7.50;;;3.50;;
12177;SDS011;6152;48.728;9.256;2023-05-24T10:20:23;9.80;;;4.45;;
12177;SDS011;6152;48.728;9.256;2023-05-24T10:22:51;8.73;;;3.45;;
12177;SDS011;6152;48.728;9.256;2023-05-24T10:25:22;11.20;;;4.13;;
12177;SDS011;6152;48.728;9.256;2023-05-24T10:27:51;8.95;;;3.97;;
12177;SDS011;6152;48.728;9.256;2023-05-24T10:30:30;7.50;;;3.55;;
12177;SDS011;6152;48.728;9.256;2023-05-24T10:33:06;8.20;;;4.07;;
12177;SDS011;6152;48.728;9.256;2023-05-24T10:35:36;4.55;;;3.58;;
12177;SDS011;6152;48.728;9.256;2023-05-24T10:38:05;7.43;;;4.15;;
12177;SDS011;6152;48.728;9.256;2023-05-24T10:40:31;8.40;;;3.83;;
12177;SDS011;6152;48.728;9.256;2023-05-24T10:42:58;8.52;;;4.07;;
12177;SDS011;6152;48.728;9.256;2023-05-24T10:45:30;6.93;;;3.55;;
12177;SDS011;6152;48.728;9.256;2023-05-24T10:48:46;8.25;;;3.65;;
12177;SDS011;6152;48.728;9.256;2023-05-24T10:50:56;9.05;;;3.78;;
12177;SDS011;6152;48.728;9.256;2023-05-24T10:53:45;7.97;;;4.07;;
12177;SDS011;6152;48.728;9.256;2023-05-24T10:56:13;7.65;;;3.83;;
12177;SDS011;6152;48.728;9.256;2023-05-24T10:58:44;9.55;;;4.07;;
12177;SDS011;6152;48.728;9.256;2023-05-24T11:01:24;8.77;;;4.10;;
12177;SDS011;6152;48.728;9.256;2023-05-24T11:04:08;4.57;;;3.78;;
12177;SDS011;6152;48.728;9.256;2023-05-24T11:06:46;12.73;;;4.53;;
12177;SDS011;6152;48.728;9.256;2023-05-24T11:09:14;6.68;;;3.60;;
12177;SDS011;6152;48.728;9.256;2023-05-24T11:11:44;9.88;;;3.72;;
12177;SDS011;6152;48.728;9.256;2023-05-24T11:14:13;7.05;;;3.72;;
12177;SDS011;6152;48.728;9.256;2023-05-24T11:16:44;8.77;;;3.95;;
12177;SDS011;6152;48.728;9.256;2023-05-24T11:21:47;9.73;;;3.85;;
12177;SDS011;6152;48.728;9.256;2023-05-24T11:24:15;8.70;;;3.88;;
12177;SDS011;6152;48.728;9.256;2023-05-24T11:26:43;6.78;;;3.50;;
12177;SDS011;6152;48.728;9.256;2023-05-24T11:29:11;9.75;;;4.25;;
12177;SDS011;6152;48.728;9.256;2023-05-24T11:31:45;10.23;;;4.22;;
12177;SDS011;6152;48.728;9.256;2023-05-24T11:34:25;9.35;;;3.90;;
12177;SDS011;6152;48.728;9.256;2023-05-24T11:36:51;10.32;;;4.10;;
12177;SDS011;6152;48.728;9.256;2023-05-24T11:39:19;8.52;;;3.75;;
12177;SDS011;6152;48.728;9.256;2023-05-24T11:41:46;7.03;;;3.88;;
12177;SDS011;6152;48.728;9.256;2023-05-24T11:44:15;8.23;;;3.90;;
12177;SDS011;6152;48.728;9.256;2023-05-24T11:46:45;9.02;;;4.60;;
12177;SDS011;6152;48.728;9.256;2023-05-24T11:49:12;9.82;;;3.95;;
12177;SDS011;6152;48.728;9.256;2023-05-24T11:51:39;7.07;;;4.28;;
12177;SDS011;6152;48.728;9.256;2023-05-24T11:54:05;10.88;;;4.13;;
12177;SDS011;6152;48.728;9.256;2023-05-24T11:56:31;5.85;;;3.28;;
12177;SDS011;6152;48.728;9.256;2023-05-24T11:59:08;7.80;;;3.75;;
12177;SDS011;6152;48.728;9.256;2023-05-24T12:01:37;6.90;;;3.40;;
12177;SDS011;6152;48.728;9.256;2023-05-24T12:04:05;7.53;;;3.47;;
12177;SDS011;6152;48.728;9.256;2023-05-24T12:06:37;9.05;;;3.00;;
12177;SDS011;6152;48.728;9.256;2023-05-24T12:09:05;8.27;;;3.60;;
12177;SDS011;6152;48.728;9.256;2023-05-24T12:11:42;10.00;;;4.20;;
12177;SDS011;6152;48.728;9.256;2023-05-24T12:14:11;7.93;;;3.22;;
12177;SDS011;6152;48.728;9.256;2023-05-24T12:16:38;6.45;;;3.28;;
12177;SDS011;6152;48.728;9.256;2023-05-24T12:19:11;4.25;;;2.80;;
12177;SDS011;6152;48.728;9.256;2023-05-24T12:21:45;5.57;;;3.00;;
12177;SDS011;6152;48.728;9.256;2023-05-24T12:24:13;6.30;;;3.42;;
12177;SDS011;6152;48.728;9.256;2023-05-24T12:26:42;7.40;;;3.10;;
12177;SDS011;6152;48.728;9.256;2023-05-24T12:29:11;6.95;;;3.17;;
12177;SDS011;6152;48.728;9.256;2023-05-24T12:31:38;5.90;;;2.97;;
12177;SDS011;6152;48.728;9.256;2023-05-24T12:34:06;4.05;;;2.58;;
12177;SDS011;6152;48.728;9.256;2023-05-24T12:36:36;6.15;;;2.55;;
12177;SDS011;6152;48.728;9.256;2023-05-24T12:39:16;5.65;;;2.67;;
12177;SDS011;6152;48.728;9.256;2023-05-24T12:41:53;4.60;;;2.30;;
12177;SDS011;6152;48.728;9.256;2023-05-24T12:44:26;3.55;;;2.28;;
12177;SDS011;6152;48.728;9.256;2023-05-24T12:46:55;5.93;;;2.55;;
12177;SDS011;6152;48.728;9.256;2023-05-24T12:49:25;7.53;;;3.30;;
12177;SDS011;6152;48.728;9.256;2023-05-24T12:51:52;5.13;;;2.55;;
12177;SDS011;6152;48.728;9.256;2023-05-24T12:54:21;5.90;;;2.60;;
12177;SDS011;6152;48.728;9.256;2023-05-24T12:56:49;4.93;;;2.97;;
12177;SDS011;6152;48.728;9.256;2023-05-24T12:59:15;5.00;;;2.40;;
12177;SDS011;6152;48.728;9.256;2023-05-24T13:01:42;3.10;;;2.03;;
12177;SDS011;6152;48.728;9.256;2023-05-24T13:04:10;8.20;;;3.30;;
12177;SDS011;6152;48.728;9.256;2023-05-24T13:06:37;5.53;;;2.90;;
12177;SDS011;6152;48.728;9.256;2023-05-24T13:09:03;7.47;;;2.90;;
12177;SDS011;6152;48.728;9.256;2023-05-24T13:11:30;5.15;;;2.70;;
12177;SDS011;6152;48.728;9.256;2023-05-24T13:13:57;4.18;;;2.25;;
12177;SDS011;6152;48.728;9.256;2023-05-24T13:16:23;4.40;;;2.10;;
12177;SDS011;6152;48.728;9.256;2023-05-24T13:18:50;2.40;;;2.20;;
12177;SDS011;6152;48.728;9.256;2023-05-24T13:21:17;6.40;;;2.33;;
12177;SDS011;6152;48.728;9.256;2023-05-24T13:23:43;5.38;;;2.00;;
12177;SDS011;6152;48.728;9.256;2023-05-24T13:26:10;5.75;;;2.60;;
12177;SDS011;6152;48.728;9.256;2023-05-24T13:28:37;7.55;;;2.67;;
12177;SDS011;6152;48.728;9.256;2023-05-24T13:31:03;7.43;;;2.67;;
12177;SDS011;6152;48.728;9.256;2023-05-24T13:33:30;4.28;;;2.75;;
12177;SDS011;6152;48.728;9.256;2023-05-24T13:35:56;4.65;;;2.60;;
12177;SDS011;6152;48.728;9.256;2023-05-24T13:38:23;4.38;;;2.40;;
12177;SDS011;6152;48.728;9.256;2023-05-24T13:40:49;5.05;;;2.80;;
12177;SDS011;6152;48.728;9.256;2023-05-24T13:43:17;7.18;;;2.63;;
12177;SDS011;6152;48.728;9.256;2023-05-24T13:45:43;7.03;;;2.63;;
12177;SDS011;6152;48.728;9.256;2023-05-24T13:48:10;6.53;;;3.15;;
12177;SDS011;6152;48.728;9.256;2023-05-24T13:50:36;6.45;;;3.20;;
12177;SDS011;6152;48.728;9.256;2023-05-24T13:53:02;3.47;;;2.75;;
12177;SDS011;6152;48.728;9.256;2023-05-24T13:55:29;7.28;;;2.63;;
12177;SDS011;6152;48.728;9.256;2023-05-24T13:57:58;6.30;;;2.65;;
12177;SDS011;6152;48.728;9.256;2023-05-24T14:00:25;7.03;;;2.70;;
12177;SDS011;6152;48.728;9.256;2023-05-24T14:02:52;5.78;;;2.60;;
12177;SDS011;6152;48.728;9.256;2023-05-24T14:05:18;2.95;;;2.25;;
12177;SDS011;6152;48.728;9.256;2023-05-24T14:07:45;4.82;;;2.80;;
12177;SDS011;6152;48.728;9.256;2023-05-24T14:10:12;5.03;;;2.55;;
12177;SDS011;6152;48.728;9.256;2023-05-24T14:12:38;3.90;;;2.50;;
12177;SDS011;6152;48.728;9.256;2023-05-24T14:15:04;10.60;;;3.20;;
12177;SDS011;6152;48.728;9.256;2023-05-24T14:17:31;6.40;;;2.50;;
12177;SDS011;6152;48.728;9.256;2023-05-24T14:19:57;5.47;;;2.40;;
12177;SDS011;6152;48.728;9.256;2023-05-24T14:22:23;7.28;;;2.92;;
12177;SDS011;6152;48.728;9.256;2023-05-24T14:24:50;4.28;;;2.17;;
12177;SDS011;6152;48.728;9.256;2023-05-24T14:27:17;7.57;;;2.60;;
12177;SDS011;6152;48.728;9.256;2023-05-24T14:29:43;10.38;;;3.10;;
12177;SDS011;6152;48.728;9.256;2023-05-24T14:32:11;4.35;;;2.00;;
12177;SDS011;6152;48.728;9.256;2023-05-24T14:34:37;4.38;;;2.38;;
12177;SDS011;6152;48.728;9.256;2023-05-24T14:37:03;4.47;;;2.90;;
12177;SDS011;6152;48.728;9.256;2023-05-24T14:39:30;4.55;;;2.20;;
12177;SDS011;6152;48.728;9.256;2023-05-24T14:41:56;8.07;;;2.47;;
12177;SDS011;6152;48.728;9.256;2023-05-24T14:44:22;5.97;;;2.20;;
12177;SDS011;6152;48.728;9.256;2023-05-24T14:46:49;4.88;;;2.28;;
12177;SDS011;6152;48.728;9.256;2023-05-24T14:49:16;6.43;;;2.60;;
12177;SDS011;6152;48.728;9.256;2023-05-24T14:51:44;4.85;;;3.17;;
12177;SDS011;6152;48.728;9.256;2023-05-24T14:54:12;6.70;;;2.35;;
12177;SDS011;6152;48.728;9.256;2023-05-24T14:56:38;2.85;;;1.90;;
12177;SDS011;6152;48.728;9.256;2023-05-24T14:59:05;6.00;;;2.35;;
12177;SDS011;6152;48.728;9.256;2023-05-24T15:01:31;5.00;;;2.30;;
12177;SDS011;6152;48.728;9.256;2023-05-24T15:03:57;4.07;;;2.40;;
12177;SDS011;6152;48.728;9.256;2023-05-24T15:06:23;5.22;;;2.13;;
12177;SDS011;6152;48.728;9.256;2023-05-24T15:08:50;5.82;;;2.25;;
12177;SDS011;6152;48.728;9.256;2023-05-24T15:11:16;6.05;;;2.75;;
12177;SDS011;6152;48.728;9.256;2023-05-24T15:13:43;3.33;;;2.10;;
12177;SDS011;6152;48.728;9.256;2023-05-24T15:16:12;6.00;;;2.20;;
12177;SDS011;6152;48.728;9.256;2023-05-24T15:18:39;5.90;;;2.90;;
12177;SDS011;6152;48.728;9.256;2023-05-24T15:21:05;5.55;;;2.53;;